createdAt,value
2019-05-23T00:02:12.363Z,17.10
2019-05-23T00:04:50.121Z,17.33
2019-05-23T00:07:25.829Z,16.67
2019-05-23T00:10:01.640Z,17.70
2019-05-23T00:12:42.809Z,16.90
2019-05-23T00:15:29.670Z,16.17
2019-05-23T00:18:04.936Z,16.37
2019-05-23T00:20:38.439Z,17.30
2019-05-23T00:23:13.936Z,18.70
2019-05-23T00:25:49.340Z,18.10
2019-05-23T00:28:22.831Z,17.47
2019-05-23T00:31:00.442Z,17.40
2019-05-23T00:33:35.017Z,15.83
2019-05-23T00:36:10.465Z,16.13
2019-05-23T00:38:44.023Z,17.50
2019-05-23T00:41:19.198Z,15.73
2019-05-23T00:43:53.798Z,15.67
2019-05-23T00:46:27.688Z,15.63
2019-05-23T00:49:02.937Z,15.10
2019-05-23T00:51:36.843Z,16.27
2019-05-23T00:54:11.321Z,15.77
2019-05-23T00:56:45.652Z,15.40
2019-05-23T00:59:27.211Z,15.13
2019-05-23T01:01:54.823Z,15.33
2019-05-23T01:04:28.483Z,16.47
2019-05-23T01:07:02.070Z,16.37
2019-05-23T01:09:36.318Z,16.23
2019-05-23T01:12:09.892Z,16.33
2019-05-23T01:14:44.352Z,16.43
2019-05-23T01:17:20.738Z,16.33
2019-05-23T01:19:54.382Z,17.60
2019-05-23T01:22:28.764Z,15.90
2019-05-23T01:25:02.168Z,15.97
2019-05-23T01:27:35.577Z,15.60
2019-05-23T01:30:12.553Z,16.03
2019-05-23T01:32:47.617Z,18.07
2019-05-23T01:35:22.442Z,15.83
2019-05-23T01:37:56.611Z,14.13
2019-05-23T01:40:31.050Z,16.23
2019-05-23T01:43:05.099Z,17.23
2019-05-23T01:45:40.311Z,18.33
2019-05-23T01:48:15.485Z,17.97
2019-05-23T01:50:50.132Z,17.87
2019-05-23T01:53:24.655Z,18.10
2019-05-23T01:55:58.406Z,15.70
2019-05-23T01:58:33.369Z,16.07
2019-05-23T02:01:07.205Z,16.13
2019-05-23T02:03:41.293Z,15.60
2019-05-23T02:06:14.844Z,15.50
2019-05-23T02:08:48.667Z,15.43
2019-05-23T02:11:24.114Z,15.33
2019-05-23T02:13:57.544Z,15.50
2019-05-23T02:16:31.622Z,14.23
2019-05-23T02:19:05.773Z,14.10
2019-05-23T02:21:40.036Z,13.63
2019-05-23T02:24:15.101Z,11.97
2019-05-23T02:26:48.577Z,13.63
2019-05-23T02:29:22.069Z,13.90
2019-05-23T02:31:55.940Z,13.53
2019-05-23T02:34:30.487Z,14.40
2019-05-23T02:37:05.589Z,13.50
2019-05-23T02:39:40.655Z,14.07
2019-05-23T02:42:15.692Z,12.77
2019-05-23T02:44:50.420Z,13.33
2019-05-23T02:47:28.737Z,15.67
2019-05-23T02:50:04.811Z,12.80
2019-05-23T02:52:42.314Z,15.27
2019-05-23T02:55:19.947Z,14.40
2019-05-23T02:57:55.385Z,15.00
2019-05-23T03:00:55.371Z,14.07
2019-05-23T03:03:30.398Z,14.47
2019-05-23T03:06:06.451Z,14.43
2019-05-23T03:08:40.712Z,14.37
2019-05-23T03:11:30.709Z,13.83
2019-05-23T03:14:05.451Z,13.93
2019-05-23T03:16:42.391Z,14.87
2019-05-23T03:19:21.814Z,14.07
2019-05-23T03:21:58.487Z,14.33
2019-05-23T03:24:33.598Z,14.40
2019-05-23T03:27:09.238Z,13.93
2019-05-23T03:29:42.614Z,13.70
2019-05-23T03:32:18.546Z,13.83
2019-05-23T03:34:53.679Z,13.70
2019-05-23T03:37:27.253Z,13.10
2019-05-23T03:40:01.883Z,13.50
2019-05-23T03:42:36.354Z,13.43
2019-05-23T03:45:12.153Z,13.47
2019-05-23T03:47:46.010Z,12.57
2019-05-23T03:50:20.453Z,13.97
2019-05-23T03:52:55.015Z,14.33
2019-05-23T03:55:30.629Z,13.97
2019-05-23T03:58:04.875Z,13.93
2019-05-23T04:00:40.275Z,13.27
2019-05-23T04:03:14.243Z,14.23
2019-05-23T04:05:47.690Z,13.20
2019-05-23T04:08:22.170Z,14.00
2019-05-23T04:10:56.492Z,12.77
2019-05-23T04:13:30.383Z,13.77
2019-05-23T04:16:03.837Z,13.77
2019-05-23T04:18:37.260Z,14.70
2019-05-23T04:21:11.042Z,14.20
2019-05-23T04:23:44.549Z,14.30
2019-05-23T04:26:17.937Z,14.23
2019-05-23T04:28:52.066Z,12.13
2019-05-23T04:31:25.768Z,13.17
2019-05-23T04:33:59.628Z,12.97
2019-05-23T04:36:33.171Z,13.90
2019-05-23T04:39:07.757Z,13.30
2019-05-23T04:41:41.272Z,13.40
2019-05-23T04:44:16.692Z,12.70
2019-05-23T04:46:50.364Z,12.60
2019-05-23T04:49:23.840Z,13.53
2019-05-23T04:51:57.769Z,12.40
2019-05-23T04:54:31.227Z,12.90
2019-05-23T04:57:05.029Z,12.00
2019-05-23T04:59:39.218Z,12.30
2019-05-23T05:02:25.483Z,11.57
2019-05-23T05:04:47.894Z,12.60
2019-05-23T05:07:21.834Z,12.37
2019-05-23T05:09:55.263Z,11.97
2019-05-23T05:12:29.031Z,11.27
2019-05-23T05:15:02.686Z,11.33
2019-05-23T05:17:36.424Z,11.97
2019-05-23T05:20:10.760Z,11.43
2019-05-23T05:22:45.377Z,10.73
2019-05-23T05:25:19.414Z,12.13
2019-05-23T05:27:52.900Z,12.27
2019-05-23T05:30:26.679Z,11.37
2019-05-23T05:33:00.145Z,11.20
2019-05-23T05:35:35.206Z,11.50
2019-05-23T05:38:08.610Z,11.37
2019-05-23T05:40:42.496Z,11.55
2019-05-23T05:43:17.024Z,11.07
2019-05-23T05:45:50.539Z,11.50
2019-05-23T05:48:23.944Z,10.93
2019-05-23T05:50:57.384Z,11.67
2019-05-23T05:53:31.416Z,11.50
2019-05-23T05:56:05.109Z,13.40
2019-05-23T05:58:38.843Z,12.43
2019-05-23T06:01:13.954Z,11.90
2019-05-23T06:03:47.409Z,11.87
2019-05-23T06:06:31.456Z,11.83
2019-05-23T06:09:14.301Z,12.23
2019-05-23T06:11:47.814Z,11.30
2019-05-23T06:14:21.728Z,11.40
2019-05-23T06:16:56.564Z,11.00
2019-05-23T06:19:30.289Z,11.10
2019-05-23T06:22:04.213Z,11.57
2019-05-23T06:24:46.894Z,10.97
2019-05-23T06:27:15.369Z,11.00
2019-05-23T06:29:48.848Z,11.57
2019-05-23T06:32:23.986Z,11.67
2019-05-23T06:34:57.396Z,10.97
2019-05-23T06:37:34.311Z,11.23
2019-05-23T06:40:09.955Z,10.63
2019-05-23T06:42:44.134Z,11.00
2019-05-23T06:45:17.933Z,11.33
2019-05-23T06:47:51.410Z,10.80
2019-05-23T06:50:25.492Z,11.57
2019-05-23T06:52:59.382Z,10.20
2019-05-23T06:55:32.778Z,11.50
2019-05-23T06:58:06.464Z,11.93
2019-05-23T07:00:40.767Z,12.10
2019-05-23T07:03:14.749Z,11.90
2019-05-23T07:05:48.477Z,11.57
2019-05-23T07:08:25.363Z,11.70
2019-05-23T07:10:59.143Z,11.80
2019-05-23T07:13:34.957Z,13.03
2019-05-23T07:16:08.356Z,12.70
2019-05-23T07:18:44.598Z,12.60
2019-05-23T07:21:20.093Z,12.80
2019-05-23T07:23:53.985Z,13.13
2019-05-23T07:26:28.651Z,13.00
2019-05-23T07:29:02.281Z,13.30
2019-05-23T07:31:35.859Z,12.77
2019-05-23T07:34:09.293Z,13.03
2019-05-23T07:36:43.220Z,12.47
2019-05-23T07:39:17.669Z,13.43
2019-05-23T07:41:51.237Z,13.27
2019-05-23T07:44:25.777Z,12.87
2019-05-23T07:47:00.720Z,12.47
2019-05-23T07:49:34.403Z,13.33
2019-05-23T07:52:07.868Z,13.08
2019-05-23T07:54:49.497Z,13.87
2019-05-23T07:57:25.105Z,13.57
2019-05-23T07:59:58.617Z,12.83
2019-05-23T08:02:35.632Z,13.00
2019-05-23T08:05:11.342Z,13.23
2019-05-23T08:07:44.857Z,12.60
2019-05-23T08:10:32.674Z,12.17
2019-05-23T08:12:54.096Z,12.30
2019-05-23T08:15:28.475Z,13.03
2019-05-23T08:18:03.291Z,12.40
2019-05-23T08:20:36.785Z,12.70
2019-05-23T08:23:10.255Z,13.33
2019-05-23T08:25:43.856Z,13.03
2019-05-23T08:28:17.398Z,12.87
2019-05-23T08:30:51.101Z,12.30
2019-05-23T08:33:24.543Z,13.13
2019-05-23T08:35:57.965Z,13.43
2019-05-23T08:38:31.355Z,13.10
2019-05-23T08:41:06.894Z,13.13
2019-05-23T08:43:40.369Z,11.50
2019-05-23T08:46:15.021Z,13.10
2019-05-23T08:48:48.765Z,13.23
2019-05-23T08:51:22.292Z,13.07
2019-05-23T08:53:56.046Z,12.83
2019-05-23T08:56:29.920Z,12.83
2019-05-23T08:59:04.210Z,11.80
2019-05-23T09:01:37.781Z,11.10
2019-05-23T09:04:11.724Z,11.03
2019-05-23T09:06:45.332Z,11.40
2019-05-23T09:09:29.275Z,11.53
2019-05-23T09:11:54.132Z,11.87
2019-05-23T09:14:28.259Z,10.53
2019-05-23T09:17:02.054Z,10.03
2019-05-23T09:19:35.510Z,10.80
2019-05-23T09:22:08.956Z,9.97
2019-05-23T09:24:42.349Z,10.20
2019-05-23T09:27:15.752Z,9.90
2019-05-23T09:29:49.531Z,9.40
2019-05-23T09:32:23.303Z,9.80
2019-05-23T09:34:56.715Z,9.50
2019-05-23T09:37:30.667Z,9.10
2019-05-23T09:40:05.717Z,10.63
2019-05-23T09:42:39.159Z,10.83
2019-05-23T09:45:13.883Z,10.10
2019-05-23T09:47:51.009Z,9.77
2019-05-23T09:50:24.723Z,9.03
2019-05-23T09:52:58.203Z,8.37
2019-05-23T09:55:31.713Z,8.47
2019-05-23T09:58:05.215Z,7.97
2019-05-23T10:00:39.039Z,8.30
2019-05-23T10:03:12.927Z,8.60
2019-05-23T10:05:46.322Z,7.83
2019-05-23T10:08:19.896Z,9.47
2019-05-23T10:10:53.360Z,11.43
2019-05-23T10:13:38.417Z,10.77
2019-05-23T10:16:07.139Z,12.30
2019-05-23T10:18:40.665Z,12.60
2019-05-23T10:21:14.083Z,11.60
2019-05-23T10:23:47.491Z,11.67
2019-05-23T10:26:21.201Z,10.73
2019-05-23T10:28:54.722Z,10.80
2019-05-23T10:31:28.123Z,11.20
2019-05-23T10:34:01.576Z,12.10
2019-05-23T10:36:34.981Z,11.90
2019-05-23T10:39:11.343Z,10.53
2019-05-23T10:41:44.817Z,10.83
2019-05-23T10:44:18.627Z,11.03
2019-05-23T10:46:52.108Z,10.90
2019-05-23T10:49:26.084Z,11.10
2019-05-23T10:52:00.383Z,11.00
2019-05-23T10:54:33.826Z,10.57
2019-05-23T10:57:07.239Z,10.93
2019-05-23T10:59:40.666Z,10.87
2019-05-23T11:02:14.746Z,10.53
2019-05-23T11:04:48.318Z,10.20
2019-05-23T11:07:22.428Z,10.67
2019-05-23T11:09:56.022Z,10.03
2019-05-23T11:12:29.634Z,11.03
2019-05-23T11:15:03.776Z,11.20
2019-05-23T11:17:38.203Z,11.00
2019-05-23T11:20:13.487Z,11.27
2019-05-23T11:22:46.950Z,10.40
2019-05-23T11:25:20.529Z,11.87
2019-05-23T11:27:54.355Z,11.63
2019-05-23T11:30:41.660Z,10.63
2019-05-23T11:33:15.827Z,9.83
2019-05-23T11:35:49.905Z,9.70
2019-05-23T11:38:23.396Z,10.63
2019-05-23T11:40:56.936Z,10.00
2019-05-23T11:43:30.355Z,10.37
2019-05-23T11:46:19.381Z,9.77
2019-05-23T11:48:53.158Z,9.73
2019-05-23T11:51:27.276Z,11.40
2019-05-23T11:54:07.954Z,10.90
2019-05-23T11:56:37.141Z,9.93
2019-05-23T11:59:10.977Z,9.87
2019-05-23T12:02:01.937Z,10.40
2019-05-23T12:04:36.752Z,9.40
2019-05-23T12:07:12.078Z,9.60
2019-05-23T12:09:46.314Z,9.93
2019-05-23T12:12:19.896Z,8.97
2019-05-23T12:14:53.549Z,9.33
2019-05-23T12:17:29.251Z,8.20
2019-05-23T12:20:03.028Z,8.93
2019-05-23T12:22:36.813Z,9.23
2019-05-23T12:25:21.772Z,8.98
2019-05-23T12:27:47.172Z,10.00
2019-05-23T12:30:21.854Z,10.03
2019-05-23T12:32:55.343Z,9.37
2019-05-23T12:35:28.874Z,9.70
2019-05-23T12:38:02.803Z,9.27
2019-05-23T12:40:36.472Z,8.50
2019-05-23T12:43:09.888Z,7.47
2019-05-23T12:45:45.236Z,9.53
2019-05-23T12:48:20.437Z,10.47
2019-05-23T12:50:55.732Z,9.60
2019-05-23T12:53:29.196Z,8.83
2019-05-23T12:56:02.786Z,7.80
2019-05-23T12:58:36.625Z,7.87
2019-05-23T13:01:12.143Z,8.10
2019-05-23T13:03:45.594Z,9.80
2019-05-23T13:06:19.371Z,11.17
2019-05-23T13:08:52.853Z,11.03
2019-05-23T13:11:26.787Z,10.13
2019-05-23T13:14:00.216Z,11.53
2019-05-23T13:16:33.647Z,10.67
2019-05-23T13:19:07.099Z,9.90
2019-05-23T13:21:40.634Z,9.77
2019-05-23T13:24:14.199Z,9.90
2019-05-23T13:26:47.989Z,10.20
2019-05-23T13:29:24.211Z,12.10
2019-05-23T13:31:56.686Z,9.40
2019-05-23T13:34:30.132Z,9.33
2019-05-23T13:37:03.715Z,9.47
2019-05-23T13:39:37.347Z,9.87
2019-05-23T13:42:10.917Z,10.30
2019-05-23T13:44:44.871Z,8.60
2019-05-23T13:47:18.412Z,8.23
2019-05-23T13:49:51.840Z,8.73
2019-05-23T13:52:25.312Z,8.30
2019-05-23T13:54:58.803Z,8.63
2019-05-23T13:57:32.488Z,8.20
2019-05-23T14:00:08.129Z,7.93
2019-05-23T14:02:41.534Z,6.93
2019-05-23T14:05:18.865Z,8.53
2019-05-23T14:07:50.669Z,7.57
2019-05-23T14:10:24.451Z,7.50
2019-05-23T14:12:57.902Z,7.70
2019-05-23T14:15:42.313Z,7.93
2019-05-23T14:18:17.445Z,7.03
2019-05-23T14:20:51.875Z,7.50
2019-05-23T14:23:29.998Z,6.13
2019-05-23T14:26:03.478Z,6.07
2019-05-23T14:28:37.031Z,5.67
2019-05-23T14:31:12.408Z,5.70
2019-05-23T14:33:47.531Z,5.80
2019-05-23T14:36:32.660Z,5.70
2019-05-23T14:39:09.489Z,5.60
2019-05-23T14:41:45.799Z,6.50
2019-05-23T14:44:19.682Z,5.80
2019-05-23T14:47:10.986Z,5.47
2019-05-23T14:50:02.389Z,6.37
2019-05-23T14:52:37.538Z,6.27
2019-05-23T14:55:13.347Z,6.37
2019-05-23T14:57:46.797Z,7.00
2019-05-23T15:00:20.632Z,6.80
2019-05-23T15:02:54.212Z,6.47
2019-05-23T15:05:27.766Z,6.27
2019-05-23T15:08:01.379Z,6.67
2019-05-23T15:10:34.942Z,6.63
2019-05-23T15:13:08.464Z,7.17
2019-05-23T15:15:41.943Z,7.27
2019-05-23T15:18:15.624Z,7.13
2019-05-23T15:20:49.112Z,7.07
2019-05-23T15:23:24.081Z,7.47
2019-05-23T15:25:57.660Z,6.80
2019-05-23T15:28:31.237Z,6.93
2019-05-23T15:31:05.341Z,7.13
2019-05-23T15:33:38.841Z,6.10
2019-05-23T15:36:12.394Z,6.30
2019-05-23T15:38:45.838Z,5.73
2019-05-23T15:41:19.248Z,6.07
2019-05-23T15:43:52.651Z,6.70
2019-05-23T15:46:26.055Z,6.77
2019-05-23T15:48:59.971Z,6.00
2019-05-23T15:51:35.026Z,6.23
2019-05-23T15:54:12.788Z,5.97
2019-05-23T15:57:04.020Z,5.97
2019-05-23T15:59:39.215Z,5.50
2019-05-23T16:02:14.611Z,5.63
2019-05-23T16:04:48.583Z,5.60
2019-05-23T16:07:22.172Z,5.03
2019-05-23T16:09:55.996Z,5.43
2019-05-23T16:12:29.456Z,5.23
2019-05-23T16:15:03.433Z,5.40
2019-05-23T16:17:36.857Z,5.60
2019-05-23T16:20:10.525Z,5.83
2019-05-23T16:22:44.629Z,5.73
2019-05-23T16:25:18.886Z,5.40
2019-05-23T16:27:53.449Z,5.30
2019-05-23T16:30:27.190Z,6.00
2019-05-23T16:33:00.595Z,5.77
2019-05-23T16:35:34.384Z,6.40
2019-05-23T16:38:07.790Z,5.85
2019-05-23T16:40:41.199Z,6.62
2019-05-23T16:43:14.780Z,6.15
2019-05-23T16:45:48.235Z,7.30
2019-05-23T16:48:21.673Z,6.00
2019-05-23T16:50:55.109Z,5.90
2019-05-23T16:53:29.822Z,5.85
2019-05-23T16:56:08.408Z,6.40
2019-05-23T16:59:03.180Z,6.83
2019-05-23T17:01:47.001Z,5.72
2019-05-23T17:04:22.278Z,6.78
2019-05-23T17:07:03.566Z,7.50
2019-05-23T17:10:07.417Z,16.05
2019-05-23T17:12:39.332Z,5.95
2019-05-23T17:15:33.691Z,6.40
2019-05-23T17:18:08.815Z,5.83
2019-05-23T17:20:46.944Z,6.40
2019-05-23T17:23:36.967Z,6.67
2019-05-23T17:26:14.446Z,6.22
2019-05-23T17:28:49.586Z,6.62
2019-05-23T17:31:27.124Z,6.70
2019-05-23T17:34:00.569Z,5.97
2019-05-23T17:36:34.503Z,6.42
2019-05-23T17:39:10.184Z,6.60
2019-05-23T17:41:44.158Z,6.40
2019-05-23T17:44:18.040Z,6.08
2019-05-23T17:46:51.507Z,5.97
2019-05-23T17:49:24.935Z,5.70
2019-05-23T17:51:58.333Z,6.00
2019-05-23T17:54:32.028Z,5.73
2019-05-23T17:57:05.577Z,6.10
2019-05-23T17:59:39.362Z,5.60
2019-05-23T18:02:13.048Z,5.53
2019-05-23T18:04:46.518Z,6.07
2019-05-23T18:07:20.080Z,5.37
2019-05-23T18:09:53.511Z,5.30
2019-05-23T18:12:26.979Z,5.87
2019-05-23T18:15:00.647Z,6.10
2019-05-23T18:17:34.154Z,5.87
2019-05-23T18:20:08.598Z,6.47
2019-05-23T18:22:42.184Z,5.60
2019-05-23T18:25:17.380Z,5.33
2019-05-23T18:27:51.297Z,5.40
2019-05-23T18:30:38.713Z,5.07
2019-05-23T18:33:12.645Z,4.87
2019-05-23T18:35:48.087Z,5.85
2019-05-23T18:38:21.867Z,5.50
2019-05-23T18:41:03.103Z,5.80
2019-05-23T18:43:31.753Z,5.60
2019-05-23T18:46:09.755Z,4.80
2019-05-23T18:48:43.728Z,4.67
2019-05-23T18:51:17.509Z,4.57
2019-05-23T18:53:51.173Z,4.40
2019-05-23T18:56:24.906Z,5.13
2019-05-23T18:58:58.875Z,4.80
2019-05-23T19:01:33.253Z,4.50
2019-05-23T19:04:07.552Z,4.47
2019-05-23T19:06:41.048Z,4.20
2019-05-23T19:09:16.195Z,4.57
2019-05-23T19:11:50.364Z,3.97
2019-05-23T19:14:23.863Z,4.63
2019-05-23T19:16:57.692Z,4.30
2019-05-23T19:19:31.734Z,4.20
2019-05-23T19:22:05.521Z,5.00
2019-05-23T19:24:39.197Z,4.10
2019-05-23T19:27:14.507Z,4.57
2019-05-23T19:29:48.777Z,4.10
2019-05-23T19:32:23.650Z,5.17
2019-05-23T19:34:57.615Z,5.20
2019-05-23T19:37:31.023Z,4.87
2019-05-23T19:40:08.151Z,5.07
2019-05-23T19:42:41.746Z,5.10
2019-05-23T19:45:15.297Z,4.77
2019-05-23T19:47:48.732Z,5.50
2019-05-23T19:50:22.754Z,5.47
2019-05-23T19:52:56.339Z,5.57
2019-05-23T19:55:29.940Z,5.23
2019-05-23T19:58:03.940Z,5.03
2019-05-23T20:00:38.787Z,5.63
2019-05-23T20:03:12.197Z,5.83
2019-05-23T20:05:47.571Z,6.33
2019-05-23T20:08:21.032Z,6.43
2019-05-23T20:10:54.541Z,6.87
2019-05-23T20:13:28.226Z,6.40
2019-05-23T20:16:02.146Z,6.97
2019-05-23T20:18:35.720Z,7.47
2019-05-23T20:21:09.192Z,6.83
2019-05-23T20:23:42.697Z,7.00
2019-05-23T20:26:16.385Z,7.50
2019-05-23T20:28:49.869Z,6.70
2019-05-23T20:31:23.367Z,7.00
2019-05-23T20:33:56.947Z,6.97
2019-05-23T20:36:30.333Z,7.70
2019-05-23T20:39:05.354Z,8.30
2019-05-23T20:41:39.421Z,7.67
2019-05-23T20:44:13.008Z,7.73
2019-05-23T20:46:46.487Z,6.40
2019-05-23T20:49:19.919Z,7.10
2019-05-23T20:51:53.461Z,7.83
2019-05-23T20:54:27.497Z,8.30
2019-05-23T20:57:01.037Z,9.13
2019-05-23T20:59:34.935Z,9.90
2019-05-23T21:02:08.559Z,10.90
2019-05-23T21:04:41.981Z,9.83
2019-05-23T21:07:15.394Z,9.87
2019-05-23T21:09:48.821Z,8.37
2019-05-23T21:12:30.244Z,9.20
2019-05-23T21:14:57.415Z,8.27
2019-05-23T21:17:31.557Z,9.60
2019-05-23T21:20:06.530Z,9.13
2019-05-23T21:22:39.927Z,8.10
2019-05-23T21:25:13.522Z,8.63
2019-05-23T21:27:46.928Z,9.13
2019-05-23T21:30:20.518Z,9.83
2019-05-23T21:32:53.937Z,9.07
2019-05-23T21:35:27.387Z,9.77
2019-05-23T21:38:00.859Z,8.30
2019-05-23T21:40:40.056Z,9.80
2019-05-23T21:43:13.822Z,9.80
2019-05-23T21:45:47.529Z,9.40
2019-05-23T21:48:21.187Z,9.80
2019-05-23T21:50:54.675Z,9.40
2019-05-23T21:53:28.074Z,9.80
2019-05-23T21:56:01.507Z,8.93
2019-05-23T21:58:34.914Z,9.00
2019-05-23T22:01:11.717Z,9.30
2019-05-23T22:03:52.802Z,9.30
2019-05-23T22:06:30.883Z,9.77
2019-05-23T22:09:07.305Z,8.57
2019-05-23T22:11:40.736Z,9.80
2019-05-23T22:14:14.277Z,10.50
2019-05-23T22:16:48.398Z,10.00
2019-05-23T22:19:25.538Z,9.63
2019-05-23T22:21:59.023Z,9.87
2019-05-23T22:24:32.502Z,9.70
2019-05-23T22:27:07.720Z,10.07
2019-05-23T22:29:41.126Z,9.07
2019-05-23T22:32:16.194Z,9.07
2019-05-23T22:34:52.190Z,10.00
2019-05-23T22:37:25.982Z,10.17
2019-05-23T22:39:59.473Z,10.37
2019-05-23T22:42:34.723Z,10.03
2019-05-23T22:45:10.211Z,9.63
2019-05-23T22:47:43.633Z,10.40
2019-05-23T22:50:17.370Z,9.40
2019-05-23T22:52:50.806Z,10.67
2019-05-23T22:55:24.353Z,11.23
2019-05-23T22:57:57.845Z,11.43
2019-05-23T23:00:39.059Z,10.57
2019-05-23T23:03:12.567Z,10.70
2019-05-23T23:05:45.966Z,11.18
2019-05-23T23:08:20.635Z,10.33
2019-05-23T23:10:54.202Z,10.93
2019-05-23T23:13:38.071Z,11.67
2019-05-23T23:16:03.270Z,12.67
2019-05-23T23:18:36.746Z,13.60
2019-05-23T23:21:10.160Z,11.83
2019-05-23T23:23:43.654Z,12.00
2019-05-23T23:26:17.080Z,11.07
2019-05-23T23:28:50.632Z,13.00
2019-05-23T23:31:24.123Z,11.37
2019-05-23T23:33:57.588Z,12.67
2019-05-23T23:36:31.054Z,12.40
2019-05-23T23:39:05.507Z,12.13
2019-05-23T23:41:38.916Z,12.47
2019-05-23T23:44:12.688Z,11.93
2019-05-23T23:47:03.552Z,12.58
2019-05-23T23:49:55.264Z,12.40
2019-05-23T23:52:46.231Z,11.50
2019-05-23T23:55:37.990Z,11.53
2019-05-23T23:58:10.680Z,11.50
